Terminal Aerodrome Forecast
Issued by NWS

Home | Current Version | Previous Version | Text Only | Print | Product List | Glossary On
Versions: 1 2 3 4 5 6 7 8 9 10 11 12 13 14 15 16 17 18 19
000
FTUS42 KTBW 271455 AAA
TAFLAL
TAF AMD
KLAL 271455Z 2715/2812 22012KT P6SM BKN120
     FM271800 25015G22KT P6SM SCT025 BKN090
      TEMPO 2719/2722 4SM TSRA BKN025CB
     FM272200 28015G22KT P6SM VCSH SCT025 BKN090
     FM280300 31010KT P6SM BKN250
     FM280800 35008KT P6SM SKC=

USA.gov is the U.S. government's official web portal to all federal, state and local government web resources and services.